Schedule Details


Flight Number: CTN423
Departure: Duesseldorf (EDDL) at 10:30
Arrival: Kastela (LDSP) at 12:20
Route: DODEN Y853 BOMBI T104 WLD UM867 VAROB DCT GIMIX DCT SABAD UL862 PALEZ L862 OKLAX

Weather Information
EDDL 251750Z 35006KT CAVOK 30/15 Q1018 NOSIG
LDSP 251800Z 01003KT 330V110 9999 FEW050 29/14 Q1016 NOSIG
Schedule Frequency

Route Map